sensor_id;sensor_type;location;lat;lon;timestamp;temperature;humidity
48575;DHT22;34352;51.084;3.712;2022-11-20T09:22:32;6.90;86.80
48575;DHT22;34352;51.084;3.712;2022-11-20T09:25:39;6.90;89.20
48575;DHT22;34352;51.084;3.712;2022-11-20T11:43:49;9.20;59.90
48575;DHT22;34352;51.084;3.712;2022-11-20T11:47:04;8.00;62.30
48575;DHT22;34352;51.084;3.712;2022-11-20T12:14:37;8.00;87.40
48575;DHT22;34352;51.084;3.712;2022-11-20T12:17:11;6.10;86.10
48575;DHT22;34352;51.084;3.712;2022-11-20T14:18:10;8.60;92.40
48575;DHT22;34352;51.084;3.712;2022-11-20T14:21:04;8.40;92.10
48575;DHT22;34352;51.084;3.712;2022-11-20T14:24:35;8.80;92.10
48575;DHT22;34352;51.084;3.712;2022-11-20T14:27:37;7.80;91.70
48575;DHT22;34352;51.084;3.712;2022-11-20T14:33:21;9.20;91.40
48575;DHT22;34352;51.084;3.712;2022-11-20T14:47:13;9.50;90.60
48575;DHT22;34352;51.084;3.712;2022-11-20T14:50:29;9.70;90.90
48575;DHT22;34352;51.084;3.712;2022-11-20T15:00:58;10.60;81.40
48575;DHT22;34352;51.084;3.712;2022-11-20T15:03:40;10.50;77.10
48575;DHT22;34352;51.084;3.712;2022-11-20T15:06:24;10.50;75.60
48575;DHT22;34352;51.084;3.712;2022-11-20T15:13:06;9.80;77.70
48575;DHT22;34352;51.084;3.712;2022-11-20T15:15:54;8.60;78.20
48575;DHT22;34352;51.084;3.712;2022-11-20T15:21:45;9.80;78.90
48575;DHT22;34352;51.084;3.712;2022-11-20T15:30:18;9.50;78.50
48575;DHT22;34352;51.084;3.712;2022-11-20T15:32:53;9.60;79.10
48575;DHT22;34352;51.084;3.712;2022-11-20T15:35:28;9.00;78.40
48575;DHT22;34352;51.084;3.712;2022-11-20T15:38:30;8.90;78.80
48575;DHT22;34352;51.084;3.712;2022-11-20T15:41:03;8.40;78.70
48575;DHT22;34352;51.084;3.712;2022-11-20T15:43:55;9.40;78.00
48575;DHT22;34352;51.084;3.712;2022-11-20T15:47:00;8.60;77.10
48575;DHT22;34352;51.084;3.712;2022-11-20T15:49:36;9.90;78.00
48575;DHT22;34352;51.084;3.712;2022-11-20T15:52:15;8.40;74.70
48575;DHT22;34352;51.084;3.712;2022-11-20T15:54:54;9.00;75.80
48575;DHT22;34352;51.084;3.712;2022-11-20T15:57:24;9.10;75.40
48575;DHT22;34352;51.084;3.712;2022-11-20T16:00:45;7.80;74.90
48575;DHT22;34352;51.084;3.712;2022-11-20T16:11:36;9.10;78.30
48575;DHT22;34352;51.084;3.712;2022-11-20T16:14:15;9.20;77.80
48575;DHT22;34352;51.084;3.712;2022-11-20T16:17:13;9.30;75.30
48575;DHT22;34352;51.084;3.712;2022-11-20T16:19:44;9.30;73.90
48575;DHT22;34352;51.084;3.712;2022-11-20T16:23:11;7.90;77.70
48575;DHT22;34352;51.084;3.712;2022-11-20T17:10:29;9.20;83.30
48575;DHT22;34352;51.084;3.712;2022-11-20T17:17:00;8.60;85.50
48575;DHT22;34352;51.084;3.712;2022-11-20T17:25:32;8.90;85.80
48575;DHT22;34352;51.084;3.712;2022-11-20T17:28:23;8.80;85.70
48575;DHT22;34352;51.084;3.712;2022-11-20T17:31:10;9.30;85.60
48575;DHT22;34352;51.084;3.712;2022-11-20T17:42:09;8.80;87.10
48575;DHT22;34352;51.084;3.712;2022-11-20T17:44:53;8.40;86.40
48575;DHT22;34352;51.084;3.712;2022-11-20T17:48:13;8.30;87.40
48575;DHT22;34352;51.084;3.712;2022-11-20T17:51:06;6.40;86.60
48575;DHT22;34352;51.084;3.712;2022-11-20T18:14:49;8.80;85.40
48575;DHT22;34352;51.084;3.712;2022-11-20T18:17:42;7.00;84.20
48575;DHT22;34352;51.084;3.712;2022-11-20T18:20:21;7.10;83.60
48575;DHT22;34352;51.084;3.712;2022-11-20T18:22:54;7.60;80.40
48575;DHT22;34352;51.084;3.712;2022-11-20T18:25:33;8.60;81.10
48575;DHT22;34352;51.084;3.712;2022-11-20T18:27:59;10.10;80.40
48575;DHT22;34352;51.084;3.712;2022-11-20T19:22:16;8.00;83.00
48575;DHT22;34352;51.084;3.712;2022-11-20T19:25:11;8.00;84.80
48575;DHT22;34352;51.084;3.712;2022-11-20T19:32:47;7.90;83.80
48575;DHT22;34352;51.084;3.712;2022-11-20T19:35:15;9.00;82.60
48575;DHT22;34352;51.084;3.712;2022-11-20T19:37:42;8.20;83.40
48575;DHT22;34352;51.084;3.712;2022-11-20T19:40:08;7.90;82.80
48575;DHT22;34352;51.084;3.712;2022-11-20T19:42:34;7.90;81.90
48575;DHT22;34352;51.084;3.712;2022-11-20T19:45:04;9.60;84.60
48575;DHT22;34352;51.084;3.712;2022-11-20T19:47:30;8.00;83.20
48575;DHT22;34352;51.084;3.712;2022-11-20T19:49:57;7.70;82.80
48575;DHT22;34352;51.084;3.712;2022-11-20T19:52:25;7.80;82.10
48575;DHT22;34352;51.084;3.712;2022-11-20T19:54:51;7.40;82.50
48575;DHT22;34352;51.084;3.712;2022-11-20T19:57:20;9.00;81.40
48575;DHT22;34352;51.084;3.712;2022-11-20T19:59:46;8.90;83.00
48575;DHT22;34352;51.084;3.712;2022-11-20T20:02:15;7.60;80.90
48575;DHT22;34352;51.084;3.712;2022-11-20T20:04:41;7.70;80.70
48575;DHT22;34352;51.084;3.712;2022-11-20T20:07:07;7.50;80.40
48575;DHT22;34352;51.084;3.712;2022-11-20T20:09:47;7.10;80.70
48575;DHT22;34352;51.084;3.712;2022-11-20T20:12:16;8.10;82.70
48575;DHT22;34352;51.084;3.712;2022-11-20T20:14:50;7.50;80.50
48575;DHT22;34352;51.084;3.712;2022-11-20T20:17:18;7.60;82.60
48575;DHT22;34352;51.084;3.712;2022-11-20T20:19:49;7.60;81.50
48575;DHT22;34352;51.084;3.712;2022-11-20T20:22:24;7.40;80.90
48575;DHT22;34352;51.084;3.712;2022-11-20T20:25:00;7.60;80.60
48575;DHT22;34352;51.084;3.712;2022-11-20T20:27:29;7.60;81.60
48575;DHT22;34352;51.084;3.712;2022-11-20T20:30:05;6.30;80.00
48575;DHT22;34352;51.084;3.712;2022-11-20T20:32:41;8.50;81.50
48575;DHT22;34352;51.084;3.712;2022-11-20T20:35:14;7.80;82.70
48575;DHT22;34352;51.084;3.712;2022-11-20T20:37:42;7.40;81.70
48575;DHT22;34352;51.084;3.712;2022-11-20T20:40:14;7.50;79.40
48575;DHT22;34352;51.084;3.712;2022-11-20T20:42:56;8.20;81.40
48575;DHT22;34352;51.084;3.712;2022-11-20T20:45:55;8.90;81.60
48575;DHT22;34352;51.084;3.712;2022-11-20T20:48:24;6.90;79.60
48575;DHT22;34352;51.084;3.712;2022-11-20T20:50:57;7.50;78.30
48575;DHT22;34352;51.084;3.712;2022-11-20T20:53:49;6.60;77.70
48575;DHT22;34352;51.084;3.712;2022-11-20T20:56:17;5.20;76.80
48575;DHT22;34352;51.084;3.712;2022-11-20T20:58:44;8.80;78.90
48575;DHT22;34352;51.084;3.712;2022-11-20T21:01:13;7.50;77.40
48575;DHT22;34352;51.084;3.712;2022-11-20T21:03:58;7.50;78.60
48575;DHT22;34352;51.084;3.712;2022-11-20T21:06:34;7.40;77.70
48575;DHT22;34352;51.084;3.712;2022-11-20T21:09:00;7.50;77.30
48575;DHT22;34352;51.084;3.712;2022-11-20T21:11:26;5.40;76.60
48575;DHT22;34352;51.084;3.712;2022-11-20T21:13:53;7.50;78.20
48575;DHT22;34352;51.084;3.712;2022-11-20T21:16:19;7.70;77.40
48575;DHT22;34352;51.084;3.712;2022-11-20T21:18:48;7.60;75.60
48575;DHT22;34352;51.084;3.712;2022-11-20T21:21:14;7.30;75.30
48575;DHT22;34352;51.084;3.712;2022-11-20T21:24:01;7.90;76.90
48575;DHT22;34352;51.084;3.712;2022-11-20T21:26:27;5.80;75.70
48575;DHT22;34352;51.084;3.712;2022-11-20T21:28:56;7.70;76.40
48575;DHT22;34352;51.084;3.712;2022-11-20T21:31:27;6.50;77.20
48575;DHT22;34352;51.084;3.712;2022-11-20T21:33:55;7.70;76.40
48575;DHT22;34352;51.084;3.712;2022-11-20T21:36:30;10.00;75.30
48575;DHT22;34352;51.084;3.712;2022-11-20T21:38:57;7.90;72.20
48575;DHT22;34352;51.084;3.712;2022-11-20T21:41:44;7.00;68.50
48575;DHT22;34352;51.084;3.712;2022-11-20T21:44:12;7.30;67.40
48575;DHT22;34352;51.084;3.712;2022-11-20T21:46:41;7.90;65.40
48575;DHT22;34352;51.084;3.712;2022-11-20T21:49:09;8.60;67.10
48575;DHT22;34352;51.084;3.712;2022-11-20T21:51:35;10.00;66.40
48575;DHT22;34352;51.084;3.712;2022-11-20T21:54:06;7.90;66.60
48575;DHT22;34352;51.084;3.712;2022-11-20T21:56:40;9.20;70.90
48575;DHT22;34352;51.084;3.712;2022-11-20T21:59:11;6.90;70.90
48575;DHT22;34352;51.084;3.712;2022-11-20T22:01:45;8.00;71.90
48575;DHT22;34352;51.084;3.712;2022-11-20T22:04:12;8.20;73.60
48575;DHT22;34352;51.084;3.712;2022-11-20T22:06:42;7.90;75.50
48575;DHT22;34352;51.084;3.712;2022-11-20T22:09:09;8.20;73.60
48575;DHT22;34352;51.084;3.712;2022-11-20T22:11:37;7.60;73.70
48575;DHT22;34352;51.084;3.712;2022-11-20T22:14:09;8.00;72.60
48575;DHT22;34352;51.084;3.712;2022-11-20T22:16:51;8.00;74.10
48575;DHT22;34352;51.084;3.712;2022-11-20T22:19:28;7.50;76.20
48575;DHT22;34352;51.084;3.712;2022-11-20T22:21:59;7.90;75.70
48575;DHT22;34352;51.084;3.712;2022-11-20T22:24:28;7.70;78.80
48575;DHT22;34352;51.084;3.712;2022-11-20T22:26:54;9.90;77.40
48575;DHT22;34352;51.084;3.712;2022-11-20T22:29:21;9.20;76.70
48575;DHT22;34352;51.084;3.712;2022-11-20T22:31:51;8.00;78.00
48575;DHT22;34352;51.084;3.712;2022-11-20T22:34:22;8.10;79.80
48575;DHT22;34352;51.084;3.712;2022-11-20T22:36:52;8.10;79.80
48575;DHT22;34352;51.084;3.712;2022-11-20T22:39:18;8.30;80.00
48575;DHT22;34352;51.084;3.712;2022-11-20T22:41:47;7.90;80.20
48575;DHT22;34352;51.084;3.712;2022-11-20T22:44:19;8.10;80.00
48575;DHT22;34352;51.084;3.712;2022-11-20T22:46:45;8.00;78.30
48575;DHT22;34352;51.084;3.712;2022-11-20T22:49:11;8.00;79.10
48575;DHT22;34352;51.084;3.712;2022-11-20T22:51:39;8.90;80.60
48575;DHT22;34352;51.084;3.712;2022-11-20T22:54:12;7.70;83.30
48575;DHT22;34352;51.084;3.712;2022-11-20T22:56:41;7.70;80.80
48575;DHT22;34352;51.084;3.712;2022-11-20T22:59:07;7.30;81.60
48575;DHT22;34352;51.084;3.712;2022-11-20T23:01:34;9.20;82.80
48575;DHT22;34352;51.084;3.712;2022-11-20T23:04:04;5.40;82.10
48575;DHT22;34352;51.084;3.712;2022-11-20T23:11:54;7.50;84.10
48575;DHT22;34352;51.084;3.712;2022-11-20T23:14:22;5.70;82.00
48575;DHT22;34352;51.084;3.712;2022-11-20T23:16:56;7.50;83.40
48575;DHT22;34352;51.084;3.712;2022-11-20T23:19:22;7.00;84.60
48575;DHT22;34352;51.084;3.712;2022-11-20T23:21:48;7.50;85.50
48575;DHT22;34352;51.084;3.712;2022-11-20T23:24:14;8.70;86.10
48575;DHT22;34352;51.084;3.712;2022-11-20T23:26:55;8.20;85.60
48575;DHT22;34352;51.084;3.712;2022-11-20T23:29:32;7.30;85.40
48575;DHT22;34352;51.084;3.712;2022-11-20T23:31:58;6.60;84.40
48575;DHT22;34352;51.084;3.712;2022-11-20T23:34:27;7.20;82.90
48575;DHT22;34352;51.084;3.712;2022-11-20T23:37:00;8.00;82.20
48575;DHT22;34352;51.084;3.712;2022-11-20T23:39:35;8.00;83.00
48575;DHT22;34352;51.084;3.712;2022-11-20T23:42:03;6.90;83.30
48575;DHT22;34352;51.084;3.712;2022-11-20T23:44:31;8.00;83.20
48575;DHT22;34352;51.084;3.712;2022-11-20T23:46:57;8.00;82.20
48575;DHT22;34352;51.084;3.712;2022-11-20T23:49:29;7.90;82.20
48575;DHT22;34352;51.084;3.712;2022-11-20T23:51:55;7.30;82.00
48575;DHT22;34352;51.084;3.712;2022-11-20T23:54:43;10.40;84.80
48575;DHT22;34352;51.084;3.712;2022-11-20T23:57:09;7.80;84.10
48575;DHT22;34352;51.084;3.712;2022-11-20T23:59:35;8.00;82.80
